Pilot Magazine UKGA

About You

Log In Register UKGA membership

Flight planning

Flight planning New flightplan NOTAM map LARS map & NOTAMs Danger area, mil. & TRA activations Weather map GPS route download Find waypoints Your waypoints New waypoint

Forums

Forums Currently discussing "EASA Liceses post Brexit"

Other items

Articles Events Links News Surveys Tips Other users Feedback UKGA membership About UKGA

METARs

UK

EGAA 111850Z 19002KT 9999 SCT023 20/17 Q1016
EGAC 111850Z AUTO 05006KT 9999 NCD 19/16 Q1016
EGAE 111850Z 07007KT 9999 FEW045 19/16 Q1016
EGBB 111850Z 01006KT CAVOK 29/18 Q1013
EGBJ 111720Z 34003KT 9999 FEW048TCU 32/18 Q1012
EGCC 111850Z AUTO 28007KT 9999 NCD 26/21 Q1014
EGCK 111850Z AUTO 27002KT 9999 SCT031/// 19/17 Q1015
EGCN 111850Z 06007KT 030V100 CAVOK 25/17 Q1015
EGDM 111750Z AUTO 19007KT 9999 NCD 31/15 Q1013
EGDR 111750Z AUTO 35012KT 9000 // SCT003/// 18/17 Q1014
EGDY 111850Z 29006KT 9999 FEW040 SCT200 25/19 Q1013 NOSIG RMK BLU BLU
EGEC 111620Z 28006KT 9999 FEW022 18/13 Q1016
EGEO 111550Z 29006KT 9999 FEW034 20/16 Q1017
EGFF 111850Z AUTO 30008KT 9999 NCD 22/19 Q1014
EGGD 111850Z AUTO 27005KT 9999 NCD 24/19 Q1014
EGGP 111850Z 30008KT 9999 7000S BKN033 BKN040 23/19 Q1014
EGGW 111850Z 11004KT 9999 FEW045CB 29/16 Q1014
EGHC 111520Z 01016KT 0600 FG BKN000 18/17 Q1015
EGHE 111520Z 36012KT 5000 BKN003 18/16 Q1015
EGHH 111820Z 18003KT CAVOK 29/14 Q1013
EGHI 111820Z 18004KT 140V230 CAVOK 30/16 Q1013 
EGHQ 111850Z 35005KT 0400 R30/0375 FG VV/// 17/17 Q1015
EGJA 111720Z 05010KT 5000 HZ FEW040CB 22/17 Q1013
EGJB 111850Z 04006KT 8000 NSC 22/17 Q1013
EGJJ 111850Z 08010KT CAVOK 27/17 Q1013
EGKA 111850Z 20003KT CAVOK 26/18 Q1013
EGKB 111850Z 09004KT CAVOK 27/17 Q1014 
EGKK 111850Z 21005KT CAVOK 31/17 Q1013
EGLC 111850Z AUTO 10008KT 9999 NCD 29/18 Q1013
EGLF 111850Z AUTO 20006KT 9999 NCD 30/16 Q1013
EGLL 111850Z AUTO 10006KT 9999 NCD 32/15 Q1013 NOSIG
EGMC 111850Z 06006KT CAVOK 24/18 Q1014
EGMD 111850Z AUTO 10011KT 9999 NCD 23/19 Q1014
EGNH 111850Z 34009KT 9999 FEW030 22/18 Q1014
EGNJ 111850Z AUTO 07009KT 9999 NCD 22/19 Q1015
EGNM 111850Z 06005KT CAVOK 24/18 Q1015
EGNO 111120Z 12005KT 070V170 CAVOK 24/19 Q1016
EGNR 111820Z 32012KT 8000 SCT030 21/18 Q1015
EGNS 111850Z 28003KT CAVOK 21/18 Q1015
EGNT 111850Z 05005KT CAVOK 18/15 Q1017
EGNV 111850Z 04008KT 9000 NSC 20/16 Q1016
EGNX 111850Z 05007KT CAVOK 28/18 Q1014
EGOM 111750Z AUTO 05006KT 9999 OVC090/// 21/19 Q1016 RERA
EGOP 111750Z AUTO 23002KT 9000 // FEW090/// 22/19 Q1014
EGOS 111750Z AUTO 35005KT 9999 NCD 28/18 Q1013
EGOV 111750Z AUTO 35007KT 9999 FEW033/// 19/16 Q1015
EGPA 111850Z AUTO 14010KT 7000 -RA SCT005/// 15/14 Q1018
EGPB 111850Z AUTO 12017KT 9999 NCD 16/14 Q1020
EGPC 111850Z AUTO 15006KT 9000 BKN004/// 14/14 Q1018
EGPD 111850Z VRB03KT 3000 BR OVC003 16/15 Q1018
EGPE 111850Z 03003KT 6000 FEW005 SCT020CB 16/15 Q1017
EGPF 111850Z AUTO 08007KT 9999 NCD 21/18 Q1016
EGPH 111850Z 04005KT 9000 3500NE VCFG FEW014 16/15 Q1017
EGPI 111850Z VRB03KT 9999 FEW025 17/15 Q1016
EGPK 111850Z VRB03KT 9999 FEW020 SCT045 19/16 Q1016
EGPL 111450Z VRB02KT 9999 SCT028 19/15 Q1017
EGPN 111850Z 09004KT 9999 FEW008TCU 17/16 Q1017
EGPO 111850Z AUTO 18002KT 9999 OVC041/// 17/15 Q1017
EGPU 111750Z AUTO 24005KT 210V270 9999 NCD 18/13 Q1016
EGQK 111750Z AUTO 30003KT 5000 RA FEW060/// OVC090/// 15/15 Q1016
EGQL 111850Z 06003KT 3000 RA SCT004 FEW020CB BKN100 16/15 Q1017 YLO2
EGQM 111850Z AUTO 02005KT 5000 BR OVC003/// 17/16 Q1017
EGQS 111850Z 32003KT 9999 -SHRA FEW000 FEW040CB SCT050 16/15 Q1016 RMK BLU
EGSC 111650Z VRB03KT CAVOK 30/18 Q1013
EGSH 111850Z 08006KT CAVOK 24/19 Q1015
EGSS 111850Z AUTO VRB08KT 9999 NCD 29/17 Q1014
EGSY 111320Z 23007KT 7000 NSC 23/19 Q1015
EGTC 111650Z VRB03KT CAVOK 31/16 Q1013
EGTE 111850Z 22006KT 190V250 9999 FEW045 27/19 Q1013
EGTK 111850Z 08005KT 9999 SCT079TCU 29/16 Q1013
EGUB 102250Z 13004KT CAVOK 24/16 Q1014 NOSIG RMK BLU BLU
EGUL 111856Z AUTO 05006KT 9999 CLR 29/16 A2992 RMK AO2 SLP135 T02880163 $
EGUN 111856Z 07006KT 9999 CLR 29/18 A2992 RMK AO2A SLP134 T02920180 $
EGUW 111850Z 13006KT CAVOK 29/16 Q1014 NOSIG RMK BLU BLU
EGVA 111856Z AUTO 26004KT 9999 BKN110 30/17 A2991 RMK AO2 SLP127 T02990173 $
EGVN 111850Z 19002KT CAVOK 32/15 Q1013 NOSIG RMK BLU BLU
EGVO 111850Z 19005KT CAVOK 29/16 Q1014 NOSIG RMK BLU BLU
EGVP 111850Z 21004KT CAVOK 29/17 Q1013 NOSIG RMK BLU BLU
EGWU 111850Z 09006KT CAVOK 31/16 Q1013 NOSIG RMK BLU BLU
EGXC 111850Z 09007KT CAVOK 25/18 Q1014 RMK BLU
EGXE 111750Z AUTO 10007KT 9999 FEW120/// 28/17 Q1015
EGXP 111750Z AUTO 08008KT 9999 // NCD 27/18 Q1014
EGXS 111750Z AUTO 05006KT 7000 // FEW170/// 19/17 Q1014
EGXT 111750Z AUTO 05006KT 9999 NCD 30/19 Q1013
EGXU 111750Z AUTO 09011KT 9999 NCD 28/16 Q1014
EGXV 111850Z AUTO 06007KT 9000 HZ NCD 20/17 Q1015
EGXW 111750Z 08010KT CAVOK 28/17 Q1014
EGXZ 111850Z AUTO 09006KT 9999 NCD 24/16 Q1015
EGYD 111750Z AUTO 09009KT 9999 // NCD 27/18 Q1014
EGYE 111150Z 06006KT CAVOK ///// Q1016 RMK BLU
EGYM 111850Z 08005KT CAVOK 28/18 Q1014 BLU
EGYP 111850Z 29010KT 9999 FEW028 BKN130 03/M04 Q0991 NOSIG

About You

Log In Register UKGA membership

Airfields

Interactive airfield map Search by name Search by postcode Search by location Fuel prices Pilot reviews Latest
(No favourites selected)

Flight planning

Flight planning New flightplan NOTAM map LARS map & NOTAMs Danger area, mil. & TRA activations Weather map GPS route download Find waypoints Your waypoints New waypoint

Forums

Forums Currently discussing "EASA Liceses post Brexit"

Other items

Articles Events Links News Surveys Tips Other users Feedback UKGA membership About UKGA